Time;durP1;ratioP1;P1;durP2;ratioP2;P2;SDS_P1;SDS_P2;PMS_P1;PMS_P2;Temp;Humidity;BMP_temperature;BMP_pressure;BME280_temperature;BME280_humidity;BME280_pressure;Samples;Min_cycle;Max_cycle;Signal;HPM_P1;HPM_P2
2022/04/13 00:00:05;;;;;;;;;8.25;7.75;;;;;10.85;50.81;101348.38;146615;577;45008;-75
2022/04/13 00:02:57;;;;;;;;;9.75;9.75;;;;;10.81;51.10;101342.91;146614;649;46010;-74
2022/04/13 00:05:50;;;;;;;;;7.00;7.00;;;;;10.78;50.49;101337.56;146613;594;45917;-83
2022/04/13 00:08:44;;;;;;;;;8.00;7.50;;;;;10.75;50.80;101345.16;146615;589;45016;-80
2022/04/13 00:11:35;;;;;;;;;8.25;7.50;;;;;10.74;51.35;101343.34;146611;621;47879;-76
2022/04/13 00:14:28;;;;;;;;;7.75;6.75;;;;;10.70;50.67;101337.06;146613;604;45017;-76
2022/04/13 00:17:22;;;;;;;;;7.50;7.50;;;;;10.08;50.52;101226.13;146614;579;45020;-77
2022/04/13 00:20:15;;;;;;;;;7.50;7.50;;;;;10.75;50.56;101335.66;146591;594;46017;-79
2022/04/13 00:23:07;;;;;;;;;7.00;7.00;;;;;10.77;51.96;101336.62;146596;587;46008;-79
2022/04/13 00:25:59;;;;;;;;;7.00;6.75;;;;;10.72;51.50;101337.19;146592;621;46010;-79
2022/04/13 00:28:52;;;;;;;;;8.00;6.75;;;;;10.33;50.86;101276.91;146587;601;46020;-79
2022/04/13 00:31:44;;;;;;;;;7.00;7.00;;;;;10.66;51.02;101339.41;146590;597;46010;-80
2022/04/13 00:34:37;;;;;;;;;5.75;5.75;;;;;10.46;50.90;101305.34;146595;613;47009;-76
2022/04/13 00:37:29;;;;;;;;;7.25;7.25;;;;;10.54;50.77;101311.91;146592;754;46010;-86
2022/04/13 00:40:22;;;;;;;;;7.00;6.50;;;;;10.77;50.89;101346.13;146592;607;46020;-77
2022/04/13 00:43:14;;;;;;;;;7.75;6.75;;;;;10.80;50.55;101342.00;146590;570;47010;-77
2022/04/13 00:46:06;;;;;;;;;6.25;6.25;;;;;10.83;50.82;101342.19;146589;583;47008;-76
2022/04/13 00:48:58;;;;;;;;;9.25;7.50;;;;;10.82;51.51;101337.81;146592;586;46917;-77
2022/04/13 00:51:51;;;;;;;;;9.25;7.00;;;;;10.80;52.14;101344.59;146592;619;47008;-76
2022/04/13 00:54:46;;;;;;;;;6.00;6.00;;;;;10.71;51.97;101338.84;146590;610;46016;-75
2022/04/13 00:57:41;;;;;;;;;6.25;6.25;;;;;10.63;51.85;101338.41;146586;601;46021;-76
2022/04/13 01:00:39;;;;;;;;;8.25;7.25;;;;;10.59;51.69;101340.72;146588;582;47012;-75
2022/04/13 01:03:32;;;;;;;;;6.00;6.00;;;;;10.56;51.39;101338.84;146593;564;46917;-74
2022/04/13 01:06:27;;;;;;;;;6.00;6.00;;;;;10.57;52.21;101334.56;146591;657;46016;-72
2022/04/13 01:09:20;;;;;;;;;10.00;8.25;;;;;10.56;52.69;101341.44;146595;593;46020;-83
2022/04/13 01:12:12;;;;;;;;;8.25;7.25;;;;;10.52;52.42;101342.03;146588;626;47012;-84
2022/04/13 01:15:05;;;;;;;;;5.75;5.75;;;;;10.50;52.54;101341.06;146594;579;46020;-84
2022/04/13 01:17:57;;;;;;;;;6.50;6.50;;;;;10.51;52.08;101342.84;146592;578;46017;-84
2022/04/13 01:20:57;;;;;;;;;7.00;6.00;;;;;10.54;52.30;101344.75;146594;590;46020;-85
2022/04/13 01:23:57;;;;;;;;;7.75;6.50;;;;;10.56;52.72;101344.03;146591;591;46016;-80
2022/04/13 01:26:50;;;;;;;;;6.25;6.25;;;;;10.56;52.82;101340.50;146586;570;46021;-80
2022/04/13 01:29:42;;;;;;;;;9.25;7.00;;;;;10.51;52.26;101335.06;146589;587;46917;-79
2022/04/13 01:32:34;;;;;;;;;8.00;6.50;;;;;10.48;53.32;101329.69;146594;563;46020;-80
2022/04/13 01:35:29;;;;;;;;;6.00;6.00;;;;;10.45;53.00;101332.09;146591;601;47010;-77
2022/04/13 01:38:21;;;;;;;;;10.75;8.75;;;;;10.44;53.63;101334.63;146594;592;47008;-77
2022/04/13 01:41:13;;;;;;;;;10.00;7.50;;;;;10.41;54.95;101332.72;146587;598;47012;-77
2022/04/13 01:44:05;;;;;;;;;9.25;8.50;;;;;9.34;54.23;101149.88;146591;592;47008;-77
2022/04/13 01:46:57;;;;;;;;;9.50;9.00;;;;;10.34;54.05;101326.28;146593;645;46016;-77
2022/04/13 01:49:49;;;;;;;;;5.75;5.75;;;;;10.34;53.46;101331.44;146594;586;47008;-79
2022/04/13 01:52:41;;;;;;;;;8.75;7.00;;;;;10.33;53.40;101334.81;146592;586;46919;-79
2022/04/13 01:55:34;;;;;;;;;9.00;8.00;;;;;10.29;53.52;101334.56;146589;585;47008;-78
2022/04/13 01:58:26;;;;;;;;;8.75;7.25;;;;;10.23;52.87;101324.66;146593;581;46010;-78
2022/04/13 02:01:19;;;;;;;;;7.00;6.00;;;;;10.18;52.15;101326.94;146593;614;46020;-82
2022/04/13 02:04:23;;;;;;;;;8.50;8.50;;;;;10.15;51.00;101329.34;146592;576;46016;-80
2022/04/13 02:07:15;;;;;;;;;6.75;6.25;;;;;10.18;51.83;101329.53;146597;604;45918;-81
2022/04/13 02:10:11;;;;;;;;;7.00;6.50;;;;;10.20;52.69;101327.06;146591;597;47010;-83
2022/04/13 02:13:02;;;;;;;;;7.00;6.75;;;;;10.20;52.26;101328.75;146592;592;46010;-83
2022/04/13 02:15:55;;;;;;;;;7.25;6.25;;;;;10.18;51.69;101326.06;146592;573;46016;-81
2022/04/13 02:18:47;;;;;;;;;6.50;6.25;;;;;10.19;51.65;101330.47;146592;571;46021;-81
2022/04/13 02:21:39;;;;;;;;;7.25;6.50;;;;;10.22;51.63;101327.12;146594;608;46012;-74
2022/04/13 02:24:34;;;;;;;;;7.25;7.25;;;;;10.23;51.83;101328.94;146587;570;46020;-75
2022/04/13 02:27:27;;;;;;;;;9.00;9.00;;;;;10.20;52.62;101319.28;146591;564;46016;-75
2022/04/13 02:30:19;;;;;;;;;8.25;7.75;;;;;10.16;52.24;101319.91;146594;563;46008;-74
2022/04/13 02:33:11;;;;;;;;;11.00;10.00;;;;;10.10;53.29;101332.47;146592;565;46919;-75
2022/04/13 02:36:05;;;;;;;;;13.00;12.75;;;;;10.03;52.83;101325.09;146594;581;46010;-80
2022/04/13 02:38:57;;;;;;;;;11.25;10.00;;;;;10.01;52.57;101329.31;146586;607;47010;-79
2022/04/13 02:41:49;;;;;;;;;10.00;10.00;;;;;9.95;53.30;101322.94;146595;663;45021;-79
2022/04/13 02:44:42;;;;;;;;;9.75;8.50;;;;;9.91;52.81;101331.31;146588;663;45907;-77
2022/04/13 02:47:36;;;;;;;;;12.25;11.00;;;;;9.87;53.07;101329.31;146595;574;46021;-79
2022/04/13 02:50:29;;;;;;;;;9.75;8.50;;;;;9.83;52.88;101334.22;146590;579;46016;-76
2022/04/13 02:53:22;;;;;;;;;20.25;17.00;;;;;9.77;53.26;101332.13;146586;582;46008;-76
2022/04/13 02:56:14;;;;;;;;;10.75;9.25;;;;;9.68;53.70;101334.13;146584;611;47010;-76
2022/04/13 02:59:06;;;;;;;;;8.25;8.00;;;;;9.60;53.67;101330.16;146594;612;46020;-76
2022/04/13 03:01:57;;;;;;;;;7.75;6.75;;;;;9.50;54.26;101323.47;146591;611;46919;-76
2022/04/13 03:04:51;;;;;;;;;7.75;7.75;;;;;9.39;55.15;101319.28;146597;570;46008;-76
2022/04/13 03:07:43;;;;;;;;;11.00;11.00;;;;;9.32;53.60;101330.06;146589;584;46016;-76
2022/04/13 03:10:35;;;;;;;;;11.50;8.50;;;;;9.27;56.28;101331.44;146591;596;47008;-80
2022/04/13 03:13:27;;;;;;;;;9.00;8.00;;;;;9.18;55.22;101329.13;146592;631;46919;-78
2022/04/13 03:16:19;;;;;;;;;11.50;9.25;;;;;9.11;54.62;101327.81;146594;580;46020;-79
2022/04/13 03:19:11;;;;;;;;;7.00;7.00;;;;;8.45;54.41;101217.41;146592;620;46920;-81
2022/04/13 03:22:03;;;;;;;;;9.25;7.50;;;;;9.13;55.97;101336.59;146589;706;46020;-81
2022/04/13 03:24:58;;;;;;;;;7.50;7.50;;;;;9.08;54.87;101337.06;146593;581;46010;-80
2022/04/13 03:27:50;;;;;;;;;6.00;6.00;;;;;9.04;54.38;101338.56;146593;634;46021;-81
2022/04/13 03:30:43;;;;;;;;;6.50;6.00;;;;;9.04;55.54;101338.56;146591;579;46012;-78
2022/04/13 03:33:35;;;;;;;;;10.25;8.50;;;;;8.98;55.49;101333.88;146593;564;47008;-76
2022/04/13 03:36:27;;;;;;;;;7.50;7.50;;;;;8.99;55.14;101339.94;146588;595;46016;-75
2022/04/13 03:39:20;;;;;;;;;9.00;8.75;;;;;8.97;55.24;101338.91;146596;594;46021;-75
2022/04/13 03:42:12;;;;;;;;;7.75;7.75;;;;;9.01;54.11;101351.28;146590;610;47010;-75
2022/04/13 03:45:13;;;;;;;;;7.75;7.25;;;;;9.05;53.32;101348.09;146594;605;46020;-75
2022/04/13 03:48:05;;;;;;;;;8.75;8.25;;;;;9.14;54.86;101350.41;146594;585;46919;-76
2022/04/13 03:50:57;;;;;;;;;12.25;9.00;;;;;9.20;54.39;101354.31;146590;583;47008;-79
2022/04/13 03:53:49;;;;;;;;;3.75;3.00;;;;;9.21;54.28;101355.19;146590;569;47013;-77
2022/04/13 03:56:41;;;;;;;;;10.50;10.00;;;;;9.24;53.85;101358.87;146594;581;46020;-78
2022/04/13 03:59:34;;;;;;;;;11.00;10.50;;;;;9.25;54.38;101363.28;146586;584;46016;-76
2022/04/13 04:02:26;;;;;;;;;12.00;11.25;;;;;9.23;54.19;101370.03;146592;564;47008;-74
2022/04/13 04:05:18;;;;;;;;;10.25;9.25;;;;;9.19;54.18;101365.47;146588;613;47010;-75
2022/04/13 04:08:11;;;;;;;;;6.25;6.00;;;;;9.21;54.33;101375.91;146595;577;46020;-80
2022/04/13 04:11:03;;;;;;;;;13.25;8.00;;;;;9.21;53.74;101366.44;146595;575;46011;-80
2022/04/13 04:13:55;;;;;;;;;9.00;9.00;;;;;9.28;53.33;101378.09;146595;569;46025;-81
2022/04/13 04:16:47;;;;;;;;;8.50;8.50;;;;;9.38;53.49;101380.53;146592;589;46017;-74
2022/04/13 04:19:40;;;;;;;;;7.75;7.75;;;;;9.49;54.03;101388.97;146597;565;46008;-74
2022/04/13 04:22:31;;;;;;;;;10.50;6.25;;;;;9.57;54.20;101387.81;146598;637;46919;-77
2022/04/13 04:25:23;;;;;;;;;6.75;6.00;;;;;9.61;53.87;101391.50;146600;692;45021;-78
2022/04/13 04:28:15;;;;;;;;;10.50;9.25;;;;;9.66;53.83;101392.69;146595;673;47010;-76
2022/04/13 04:31:08;;;;;;;;;8.00;8.00;;;;;9.76;54.00;101396.78;146598;564;46021;-77
2022/04/13 04:34:00;;;;;;;;;8.75;6.50;;;;;9.85;53.77;101407.75;146593;579;46016;-76
2022/04/13 04:36:53;;;;;;;;;9.75;9.25;;;;;9.94;53.84;101404.03;146596;610;46021;-77
2022/04/13 04:39:44;;;;;;;;;9.25;9.25;;;;;10.03;53.92;101406.34;146591;592;46011;-75
2022/04/13 04:42:48;;;;;;;;;7.00;7.00;;;;;10.17;53.68;101410.69;146594;677;47008;-75
2022/04/13 04:45:40;;;;;;;;;11.25;11.25;;;;;10.61;55.20;101416.91;146596;590;46016;-76
2022/04/13 04:48:32;;;;;;;;;12.75;11.00;;;;;11.20;53.90;101418.75;146595;602;46021;-76
2022/04/13 04:51:25;;;;;;;;;8.00;8.00;;;;;11.71;51.94;101422.59;146591;619;46016;-77
2022/04/13 04:54:17;;;;;;;;;13.50;13.50;;;;;12.11;51.21;101425.81;146594;786;46020;-76
2022/04/13 04:57:09;;;;;;;;;12.50;12.50;;;;;12.42;50.23;101420.59;146591;665;46918;-75
2022/04/13 05:00:01;;;;;;;;;20.00;17.25;;;;;12.67;49.55;101425.44;146593;597;47008;-74
2022/04/13 05:02:55;;;;;;;;;15.00;14.25;;;;;12.86;50.00;101419.50;146590;740;46017;-73
2022/04/13 05:05:47;;;;;;;;;15.50;15.50;;;;;13.04;48.46;101421.28;146595;625;46010;-74
2022/04/13 05:08:39;;;;;;;;;18.00;18.00;;;;;13.11;48.24;101416.47;146590;564;47010;-74
2022/04/13 05:11:32;;;;;;;;;23.25;21.25;;;;;13.20;48.49;101421.25;146592;581;47008;-73
2022/04/13 05:14:25;;;;;;;;;21.50;18.50;;;;;13.33;49.11;101422.81;146592;596;46016;-73
2022/04/13 05:17:18;;;;;;;;;24.25;22.50;;;;;13.48;48.67;101427.91;146593;614;46021;-73
2022/04/13 05:20:11;;;;;;;;;26.50;25.00;;;;;13.62;47.88;101427.81;146586;641;46016;-72
2022/04/13 05:23:04;;;;;;;;;28.75;23.00;;;;;13.78;47.89;101428.56;146590;635;46008;-76
2022/04/13 05:25:55;;;;;;;;;26.50;25.50;;;;;13.94;47.33;101427.59;146587;563;46031;-74
2022/04/13 05:28:48;;;;;;;;;20.25;17.75;;;;;14.08;46.84;101430.06;146588;667;46020;-77
2022/04/13 05:31:40;;;;;;;;;20.75;19.75;;;;;14.21;46.64;101421.13;146586;576;46016;-75
2022/04/13 05:34:33;;;;;;;;;17.00;15.25;;;;;14.38;45.56;101429.72;146587;595;47008;-75
2022/04/13 05:37:24;;;;;;;;;20.25;17.50;;;;;14.50;45.30;101426.81;146587;573;47010;-83
2022/04/13 05:40:17;;;;;;;;;19.25;18.00;;;;;14.64;45.45;101428.38;146590;604;47008;-88
2022/04/13 05:43:09;;;;;;;;;22.75;20.00;;;;;14.82;45.36;101433.53;146584;577;46016;-86
2022/04/13 05:46:02;;;;;;;;;21.00;20.25;;;;;15.01;45.00;101430.00;146589;609;46008;-88
2022/04/13 05:48:53;;;;;;;;;23.00;21.75;;;;;15.19;44.71;101427.31;146586;569;46012;-85
2022/04/13 05:51:46;;;;;;;;;18.75;18.50;;;;;15.37;44.19;101433.34;146587;569;46020;-87
2022/04/13 05:54:38;;;;;;;;;20.50;18.25;;;;;15.55;43.75;101434.97;146585;660;47010;-90
2022/04/13 05:57:30;;;;;;;;;19.00;17.00;;;;;15.67;44.13;101435.53;146590;564;45916;-88
2022/04/13 06:00:22;;;;;;;;;20.50;18.75;;;;;15.78;44.58;101433.34;146589;634;46016;-88
2022/04/13 06:03:14;;;;;;;;;15.00;15.00;;;;;15.88;43.99;101425.94;146589;588;46020;-87
2022/04/13 06:06:06;;;;;;;;;17.75;15.75;;;;;15.94;43.72;101426.19;146583;645;47010;-89
2022/04/13 06:08:59;;;;;;;;;13.25;11.00;;;;;16.04;42.75;101416.97;146593;589;46008;-91
2022/04/13 06:11:51;;;;;;;;;15.50;13.25;;;;;16.16;43.20;101421.81;146592;593;46025;-89
2022/04/13 06:14:43;;;;;;;;;14.50;13.75;;;;;16.29;43.70;101423.19;146585;605;46025;-88
2022/04/13 06:17:35;;;;;;;;;16.25;13.75;;;;;16.48;43.31;101422.16;146586;573;46016;-90
2022/04/13 06:20:27;;;;;;;;;13.25;11.75;;;;;16.65;42.93;101423.72;146614;609;45020;-82
2022/04/13 06:23:19;;;;;;;;;11.25;9.50;;;;;16.80;42.57;101424.31;146615;583;45030;-78
2022/04/13 06:26:11;;;;;;;;;13.75;12.00;;;;;16.96;42.73;101425.78;146610;564;46008;-79
2022/04/13 06:29:03;;;;;;;;;11.75;11.00;;;;;17.09;43.03;101422.75;146611;580;46012;-77
2022/04/13 06:31:56;;;;;;;;;15.00;13.00;;;;;17.21;42.51;101418.78;146614;614;45020;-84
2022/04/13 06:34:47;;;;;;;;;9.50;9.00;;;;;17.27;41.47;101429.50;146615;592;46008;-84
2022/04/13 06:37:47;;;;;;;;;13.75;10.00;;;;;17.29;42.29;101426.09;146612;609;46008;-83
2022/04/13 06:40:39;;;;;;;;;14.25;12.75;;;;;17.36;42.60;101432.44;146614;569;45920;-71
2022/04/13 06:43:31;;;;;;;;;12.00;11.25;;;;;17.39;41.43;101427.31;146608;714;47916;-72
2022/04/13 06:46:23;;;;;;;;;10.50;10.50;;;;;17.49;41.55;101426.78;146611;637;46008;-72
2022/04/13 06:49:16;;;;;;;;;7.25;7.25;;;;;17.64;42.16;101429.03;146617;586;46008;-74
2022/04/13 06:52:08;;;;;;;;;14.75;13.00;;;;;17.80;41.63;101434.81;146611;563;46010;-68
2022/04/13 06:55:01;;;;;;;;;9.50;9.25;;;;;17.94;41.47;101436.16;146615;593;45917;-70
2022/04/13 06:57:53;;;;;;;;;15.25;14.00;;;;;17.97;41.81;101442.41;146616;605;45919;-69
2022/04/13 07:00:45;;;;;;;;;14.25;13.50;;;;;17.98;41.81;101446.81;146612;669;46916;-70
2022/04/13 07:03:37;;;;;;;;;16.00;14.00;;;;;18.08;41.81;101440.13;146616;577;46010;-70
2022/04/13 07:06:30;;;;;;;;;16.50;15.50;;;;;18.25;41.63;101443.25;146615;564;46008;-71
2022/04/13 07:09:21;;;;;;;;;15.00;14.00;;;;;18.41;40.85;101449.88;146614;596;46008;-71
2022/04/13 07:12:14;;;;;;;;;13.25;13.00;;;;;18.46;41.58;101441.31;146609;678;46010;-71
2022/04/13 07:15:07;;;;;;;;;14.50;14.00;;;;;18.54;41.66;101452.06;146614;565;46010;-71
2022/04/13 07:17:59;;;;;;;;;11.50;10.25;;;;;18.53;41.31;101449.38;146611;569;46008;-71
2022/04/13 07:20:51;;;;;;;;;10.00;8.25;;;;;18.52;41.88;101452.84;146589;597;46919;-71
2022/04/13 07:23:43;;;;;;;;;10.25;8.00;;;;;18.51;40.79;101458.97;146593;602;46021;-70
2022/04/13 07:26:35;;;;;;;;;11.00;8.75;;;;;18.48;41.37;101465.00;146588;583;46016;-70
2022/04/13 07:29:28;;;;;;;;;7.75;7.00;;;;;18.48;41.24;101472.00;146593;620;46008;-71
2022/04/13 07:32:20;;;;;;;;;6.75;6.25;;;;;18.43;40.86;101469.22;146593;631;46016;-72
2022/04/13 07:35:13;;;;;;;;;8.50;8.25;;;;;18.10;40.60;101425.31;146590;574;47008;-71
2022/04/13 07:38:05;;;;;;;;;9.50;8.75;;;;;18.38;41.38;101468.16;146592;628;46012;-70
2022/04/13 07:41:01;;;;;;;;;8.50;6.25;;;;;18.39;41.60;101469.97;146587;575;46917;-72
2022/04/13 07:43:52;;;;;;;;;8.00;7.75;;;;;18.39;41.32;101472.59;146593;597;46017;-72
2022/04/13 07:46:45;;;;;;;;;8.75;7.00;;;;;18.38;41.63;101474.34;146594;571;46020;-75
2022/04/13 07:49:37;;;;;;;;;7.75;6.00;;;;;18.37;41.56;101475.16;146594;617;46016;-74
2022/04/13 07:52:29;;;;;;;;;6.00;6.00;;;;;18.37;41.50;101475.16;146593;719;46021;-79
2022/04/13 07:55:21;;;;;;;;;5.00;5.00;;;;;18.40;40.99;101488.38;146593;572;46010;-80
2022/04/13 07:58:14;;;;;;;;;8.00;5.50;;;;;18.42;41.28;101496.31;146594;626;46020;-73
2022/04/13 08:01:06;;;;;;;;;7.00;7.00;;;;;18.40;40.97;101493.63;146592;600;46012;-80
2022/04/13 08:03:58;;;;;;;;;9.25;6.25;;;;;18.33;41.44;101499.53;146593;652;47010;-78
2022/04/13 08:06:51;;;;;;;;;8.50;7.50;;;;;18.33;41.67;101501.28;146588;632;47013;-78
2022/04/13 08:09:43;;;;;;;;;5.25;5.25;;;;;18.31;41.95;101492.44;146586;601;46021;-77
2022/04/13 08:12:36;;;;;;;;;6.00;5.00;;;;;18.30;42.11;101501.19;146591;597;46016;-77
2022/04/13 08:15:28;;;;;;;;;6.50;6.00;;;;;18.34;42.06;101496.06;146593;601;47008;-78
2022/04/13 08:18:20;;;;;;;;;8.25;8.00;;;;;18.39;41.98;101485.72;146591;563;46016;-78
2022/04/13 08:21:12;;;;;;;;;8.00;8.00;;;;;18.46;41.80;101485.94;146592;708;47008;-77
2022/04/13 08:24:04;;;;;;;;;8.50;7.75;;;;;18.55;41.43;101481.84;146590;582;46016;-77
2022/04/13 08:26:58;;;;;;;;;8.00;7.50;;;;;18.67;41.46;101487.47;146592;611;46008;-76
2022/04/13 08:29:51;;;;;;;;;8.00;7.75;;;;;18.79;42.44;101493.12;146590;663;46017;-77
2022/04/13 08:32:43;;;;;;;;;7.00;7.00;;;;;18.88;42.72;101488.16;146593;638;46020;-76
2022/04/13 08:35:35;;;;;;;;;8.00;8.00;;;;;18.92;41.40;101483.88;146591;583;47010;-76
2022/04/13 08:38:27;;;;;;;;;9.25;8.50;;;;;18.93;41.67;101485.63;146586;582;47010;-77
2022/04/13 08:41:56;;;;;;;;;7.50;6.75;;;;;18.95;41.49;101483.97;146592;580;45919;-77
2022/04/13 08:44:55;;;;;;;;;5.75;5.75;;;;;19.08;41.46;101483.44;146593;564;46020;-77
2022/04/13 08:47:50;;;;;;;;;8.00;7.00;;;;;19.12;40.50;101481.78;146591;582;46016;-78
2022/04/13 08:50:48;;;;;;;;;6.25;6.00;;;;;19.19;41.15;101473.25;146598;597;46008;-78
2022/04/13 08:53:43;;;;;;;;;6.50;6.50;;;;;19.34;40.52;101470.13;146595;622;46920;-77
2022/04/13 08:56:39;;;;;;;;;7.00;7.00;;;;;19.51;39.97;101466.22;146594;573;46917;-77
2022/04/13 08:59:54;;;;;;;;;10.00;6.75;;;;;19.61;40.23;101475.25;146588;675;46017;-77
2022/04/13 09:03:41;;;;;;;;;7.00;5.25;;;;;18.75;40.46;101295.94;146592;564;47010;-77
2022/04/13 09:06:34;;;;;;;;;7.75;6.00;;;;;19.91;39.55;101461.16;146591;570;46017;-76
2022/04/13 09:09:38;;;;;;;;;5.00;5.00;;;;;20.17;40.33;101453.87;146589;600;46008;-77
2022/04/13 09:12:33;;;;;;;;;5.50;5.00;;;;;20.48;39.42;101464.25;146593;567;47010;-77
2022/04/13 09:15:25;;;;;;;;;6.75;5.25;;;;;20.60;38.96;101466.31;146592;657;47008;-78
2022/04/13 09:18:17;;;;;;;;;7.50;6.25;;;;;20.58;39.65;101451.31;146590;565;47010;-77
2022/04/13 09:21:10;;;;;;;;;7.75;5.75;;;;;20.56;39.34;101463.56;146593;576;47008;-77
2022/04/13 09:24:04;;;;;;;;;6.00;6.00;;;;;20.60;40.23;101453.13;146588;578;47012;-78
2022/04/13 09:26:57;;;;;;;;;5.50;3.75;;;;;20.70;38.95;101454.22;146593;611;47010;-77
2022/04/13 09:29:49;;;;;;;;;5.25;5.25;;;;;20.71;39.17;101448.09;146592;640;46010;-78
2022/04/13 09:32:41;;;;;;;;;6.50;5.25;;;;;20.70;39.58;101454.22;146594;618;46020;-77
2022/04/13 09:35:37;;;;;;;;;5.00;4.50;;;;;20.63;39.15;101447.94;146589;628;47013;-78
2022/04/13 09:38:31;;;;;;;;;7.00;5.00;;;;;20.49;39.65;101444.94;146587;569;47008;-78
2022/04/13 09:41:23;;;;;;;;;8.00;7.00;;;;;19.75;40.34;101328.28;146592;588;46919;-78
2022/04/13 09:44:18;;;;;;;;;6.25;5.00;;;;;20.32;41.05;101437.53;146591;659;46020;-76
2022/04/13 09:47:16;;;;;;;;;10.25;9.25;;;;;20.25;40.55;101437.41;146592;635;46919;-79
2022/04/13 09:50:09;;;;;;;;;5.25;5.25;;;;;20.20;40.92;101438.16;146592;628;47008;-77
2022/04/13 09:53:05;;;;;;;;;6.00;6.00;;;;;20.18;40.98;101432.81;146592;647;46916;-78
2022/04/13 09:56:02;;;;;;;;;6.00;6.00;;;;;20.20;40.92;101430.25;146592;591;47008;-79
2022/04/13 09:58:54;;;;;;;;;8.50;7.00;;;;;20.25;41.12;101439.16;146590;630;46016;-78
2022/04/13 10:01:51;;;;;;;;;8.50;8.25;;;;;20.29;41.35;101433.97;146595;566;46020;-77
2022/04/13 10:04:43;;;;;;;;;6.00;5.25;;;;;20.33;40.78;101429.66;146588;605;47013;-77
2022/04/13 10:07:37;;;;;;;;;7.25;7.25;;;;;20.34;41.54;101433.19;146586;586;47008;-79
2022/04/13 10:10:29;;;;;;;;;6.00;6.00;;;;;20.35;40.69;101427.97;146593;565;46010;-77
2022/04/13 10:13:43;;;;;;;;;5.75;5.75;;;;;20.37;40.75;101434.13;146595;578;46021;-78
2022/04/13 10:16:39;;;;;;;;;7.00;7.00;;;;;20.45;40.91;101429.94;146592;649;47016;-79
2022/04/13 10:19:31;;;;;;;;;6.50;6.50;;;;;20.51;40.28;101439.72;146594;565;47008;-79
2022/04/13 10:22:23;;;;;;;;;6.00;6.00;;;;;20.57;40.65;101433.75;146594;581;47010;-79
2022/04/13 10:25:26;;;;;;;;;5.25;5.25;;;;;20.56;40.02;101432.84;146592;571;47020;-79
2022/04/13 10:28:26;;;;;;;;;4.00;4.00;;;;;20.49;40.12;101430.88;146594;570;46016;-78
2022/04/13 10:31:18;;;;;;;;;6.00;6.00;;;;;20.45;40.20;101429.06;146594;565;46020;-78
2022/04/13 10:34:11;;;;;;;;;6.25;6.25;;;;;20.40;40.96;101430.69;146594;665;46012;-80
2022/04/13 10:37:03;;;;;;;;;7.00;6.00;;;;;20.41;41.54;101429.84;146587;739;46008;-79
2022/04/13 10:40:00;;;;;;;;;6.25;6.25;;;;;20.45;41.32;101431.69;146592;572;45919;-79
2022/04/13 10:42:54;;;;;;;;;5.00;5.00;;;;;20.49;41.01;101420.34;146592;564;47008;-79
2022/04/13 10:45:51;;;;;;;;;6.50;6.50;;;;;20.64;40.44;101428.62;146591;608;46010;-79
2022/04/13 10:48:47;;;;;;;;;6.00;6.00;;;;;20.75;41.18;101426.22;146594;614;47008;-79
2022/04/13 10:51:43;;;;;;;;;5.75;5.75;;;;;20.83;40.45;101431.66;146591;631;46016;-78
2022/04/13 10:54:40;;;;;;;;;4.25;4.25;;;;;20.83;40.08;101429.87;146599;605;45020;-76
2022/04/13 10:58:05;;;;;;;;;5.75;5.00;;;;;20.88;40.39;101424.72;146591;620;46029;-79
2022/04/13 11:01:11;;;;;;;;;2.75;2.75;;;;;20.96;39.93;101431.03;146596;617;46020;-79
2022/04/13 11:04:04;;;;;;;;;6.75;5.75;;;;;20.96;40.75;101420.47;146591;648;46016;-78
2022/04/13 11:06:56;;;;;;;;;8.50;6.50;;;;;20.94;40.15;101419.59;146587;571;46020;-79
2022/04/13 11:09:50;;;;;;;;;5.25;5.00;;;;;20.87;40.18;101415.94;146593;586;46010;-80
2022/04/13 11:12:42;;;;;;;;;5.00;5.00;;;;;20.84;41.34;101425.50;146594;729;46020;-78
2022/04/13 11:15:45;;;;;;;;;6.25;5.75;;;;;20.80;40.68;101423.69;146588;612;47012;-80
2022/04/13 11:18:38;;;;;;;;;11.25;8.75;;;;;20.80;41.66;101419.28;146593;563;46008;-79
2022/04/13 11:21:30;;;;;;;;;5.75;5.50;;;;;20.83;41.43;101415.81;146591;577;46012;-80
2022/04/13 11:25:02;;;;;;;;;9.00;6.00;;;;;19.87;40.80;101241.72;146593;678;46020;-78
2022/04/13 11:27:56;;;;;;;;;7.75;7.75;;;;;20.78;40.49;101397.31;146593;583;46012;-79
2022/04/13 11:31:16;;;;;;;;;4.50;4.25;;;;;20.83;40.80;101402.66;146592;738;46020;-76
2022/04/13 11:34:10;;;;;;;;;6.25;5.25;;;;;20.87;41.51;101392.22;146590;633;47012;-80
2022/04/13 11:37:07;;;;;;;;;6.00;6.00;;;;;20.88;40.98;101393.09;146585;590;47008;-77
2022/04/13 11:40:07;;;;;;;;;5.75;4.75;;;;;20.86;41.20;101382.50;146588;644;47012;-80
2022/04/13 11:43:05;;;;;;;;;6.75;6.75;;;;;20.72;41.99;101365.56;146596;691;46008;-78
2022/04/13 11:45:57;;;;;;;;;6.75;6.75;;;;;20.87;42.46;101379.03;146590;649;46016;-80
2022/04/13 11:48:50;;;;;;;;;4.75;4.75;;;;;20.87;42.35;101380.75;146594;684;46008;-78
2022/04/13 11:51:42;;;;;;;;;7.75;5.50;;;;;20.89;42.51;101374.66;146590;572;46016;-77
2022/04/13 11:54:48;;;;;;;;;6.00;6.00;;;;;20.91;43.05;101377.34;146591;604;47010;-78
2022/04/13 11:58:21;;;;;;;;;5.25;5.00;;;;;20.87;43.09;101372.84;146592;615;47010;-79
2022/04/13 12:01:14;;;;;;;;;4.50;4.50;;;;;20.92;44.45;101368.56;146592;704;46024;-78
2022/04/13 12:04:10;;;;;;;;;6.25;6.25;;;;;21.03;43.11;101345.03;146591;585;46011;-79
2022/04/13 12:07:03;;;;;;;;;4.25;4.00;;;;;21.07;42.43;101346.88;146586;629;46918;-79
2022/04/13 12:09:55;;;;;;;;;4.00;4.00;;;;;21.00;43.40;101351.16;146590;564;46016;-79
2022/04/13 12:13:02;;;;;;;;;4.75;4.75;;;;;20.92;43.63;101347.47;146594;580;46008;-78
2022/04/13 12:15:57;;;;;;;;;4.50;4.50;;;;;20.90;44.08;101343.91;146592;565;46919;-78
2022/04/13 12:18:49;;;;;;;;;5.00;4.75;;;;;20.88;42.69;101338.63;146593;636;47008;-78
2022/04/13 12:21:42;;;;;;;;;3.75;3.75;;;;;20.88;41.81;101336.00;146591;578;47010;-78
2022/04/13 12:24:35;;;;;;;;;5.75;5.00;;;;;20.86;41.89;101339.44;146596;593;46008;-80
2022/04/13 12:27:27;;;;;;;;;5.25;5.00;;;;;20.76;42.76;101327.84;146594;571;45919;-78
2022/04/13 12:30:19;;;;;;;;;5.75;4.25;;;;;20.69;41.95;101328.59;146591;672;47008;-78
2022/04/13 12:33:23;;;;;;;;;6.25;5.25;;;;;20.67;41.78;101320.66;146590;581;46017;-79
2022/04/13 12:36:16;;;;;;;;;5.25;5.00;;;;;20.61;42.92;101317.00;146589;581;46021;-78
2022/04/13 12:39:13;;;;;;;;;5.75;5.00;;;;;20.48;41.96;101315.84;146588;607;47012;-78
2022/04/13 12:42:07;;;;;;;;;5.25;5.00;;;;;20.37;42.56;101327.91;146595;597;46008;-78
2022/04/13 12:44:59;;;;;;;;;6.00;5.00;;;;;20.30;43.08;101319.88;146593;587;46016;-80
2022/04/13 12:47:52;;;;;;;;;4.00;4.00;;;;;20.21;42.53;101295.97;146593;656;46020;-79
2022/04/13 12:50:58;;;;;;;;;6.00;6.00;;;;;20.29;41.99;101304.94;146589;595;46016;-77
2022/04/13 12:54:01;;;;;;;;;4.00;4.00;;;;;20.32;41.99;101304.13;146592;563;46020;-79
2022/04/13 12:56:56;;;;;;;;;5.00;5.00;;;;;20.19;42.49;101278.38;146591;586;46017;-80
2022/04/13 12:59:48;;;;;;;;;5.00;4.75;;;;;20.29;42.12;101298.78;146595;571;46008;-79
2022/04/13 13:02:41;;;;;;;;;3.00;3.00;;;;;20.26;42.82;101302.22;146590;572;46013;-79
2022/04/13 13:05:33;;;;;;;;;5.25;5.25;;;;;20.31;42.87;101299.69;146589;638;46008;-79
2022/04/13 13:08:26;;;;;;;;;5.25;4.25;;;;;20.34;41.95;101289.22;146590;580;47010;-78
2022/04/13 13:11:18;;;;;;;;;4.50;4.50;;;;;20.34;41.84;101291.84;146594;664;45021;-78
2022/04/13 13:14:19;;;;;;;;;4.75;4.75;;;;;20.30;41.26;101282.13;146588;698;46016;-78
2022/04/13 13:17:25;;;;;;;;;5.00;5.00;;;;;20.29;41.09;101270.69;146593;673;46020;-80
2022/04/13 13:20:20;;;;;;;;;4.00;4.00;;;;;20.26;41.77;101262.72;146617;688;45010;-80
2022/04/13 13:23:12;;;;;;;;;3.50;3.00;;;;;20.19;41.70;101267.84;146610;639;45020;-78
2022/04/13 13:26:05;;;;;;;;;4.50;4.50;;;;;20.18;41.32;101280.09;146616;589;45010;-75